Ventnor, United Kingdom
Current Conditions -  °F | °C
As of 12:50 PM on Wednesday 26 Nov 2014 (Local Time) from EGHI Reporting Station
Haze Haze  
Wind Chill: 44°   Ceiling: 400
Heat Index: 46°   Visibility: 3mi
Dew Point: 46°   Wind: 5mph
Humidity: 100%   Direction: 20°NNE
Pressure: 29.83"   Gusts: NA
Location:  50.59°N, 1.2°W
Report Text: EGHI 261250Z 02004KT 5000 BR OVC004 08/08 Q1010
Loading
Personal Weather Stations






























Interactive Weather Map New forecast layout! Learn more

10-Day Weather Forecast

Advertisements
Track Severe Weather on mobile